CAC weather

Campo Capote Airport
Velez, Santander Department, Colombia

Public forecast

Using degrees Celsius for public forecast. Weather courtesy of forecast.io.

METAR (pilot weather report)

Closest report is YariguĂ­es Airport, 17.7 nm (32.8 km) NNE. Retrieved 2019/03/20 12:00 UTC (54 minutes ago):

SKEJ 201200Z 03003KT 9999 SCT020 SCT120 25/24 A2986

TAF (pilot weather forecast)

Forecast is more than 12 hours old.

Closest forecast is Palonegro Airport, 49.1 nm (91.0 km) ENE. Retrieved 2019/03/16 00:00 UTC (5 days ago):

TAF SKBG 152300Z 1600/1624 30005KT 9999 SCT017 SCT070 TEMPO 1600/1602 -RA BECMG 1602/2604 VRB02KT TEMPO 1603/1606 7000 VCSH SCT015TCU TEMPO 1609/1613 8000 SCT015 BKN070 TEMPO 1619/1623 33010KT 8000 TX28/1619Z TN19/1611Z